Time;durP1;ratioP1;P1;durP2;ratioP2;P2;SDS_P1;SDS_P2;PMS_P1;PMS_P2;Temp;Humidity;BMP_temperature;BMP_pressure;BME280_temperature;BME280_humidity;BME280_pressure;Samples;Min_cycle;Max_cycle;Signal;HPM_P1;HPM_P2
2021/10/02 00:37:02;;;;;;;4.27;3.20;;;;;;;-146.32;100.00;58893.91;6230317;28;20304;-54
2021/10/02 00:47:41;;;;;;;2.93;2.63;;;;;;;-146.32;100.00;58893.91;6226061;28;20233;-54
2021/10/02 00:51:02;;;;;;;5.90;2.67;;;;;;;-146.32;100.00;58893.91;6232257;28;20194;-55
2021/10/02 00:54:23;;;;;;;2.43;2.00;;;;;;;-146.32;100.00;58893.91;6228530;28;20228;-54
2021/10/02 00:57:44;;;;;;;3.80;2.43;;;;;;;-146.32;100.00;58893.91;6230040;28;20258;-55
2021/10/02 01:01:05;;;;;;;2.67;2.40;;;;;;;-146.32;100.00;58893.91;6234556;28;20204;-53
2021/10/02 01:04:40;;;;;;;3.97;2.37;;;;;;;-146.32;100.00;58893.91;6233293;28;20228;-54
2021/10/02 01:08:10;;;;;;;5.67;3.63;;;;;;;-146.32;100.00;58893.91;6231510;28;20255;-53
2021/10/02 01:11:44;;;;;;;2.90;2.17;;;;;;;-146.32;100.00;58893.91;6230155;28;20717;-53
2021/10/02 01:15:09;;;;;;;3.00;2.70;;;;;;;-146.32;100.00;58893.91;6235161;28;20220;-53
2021/10/02 01:18:35;;;;;;;3.57;3.00;;;;;;;-146.32;100.00;58893.91;6233626;28;20838;-50
2021/10/02 01:22:09;;;;;;;5.03;4.23;;;;;;;-146.32;100.00;58893.91;6229655;28;20208;-55
2021/10/02 01:25:43;;;;;;;4.13;3.07;;;;;;;-146.32;100.00;58893.91;6230292;28;20213;-54
2021/10/02 01:29:09;;;;;;;3.37;3.07;;;;;;;-146.32;100.00;58893.91;6233240;28;20232;-53
2021/10/02 01:32:34;;;;;;;4.40;2.97;;;;;;;-146.32;100.00;58893.91;6232384;28;20189;-54
2021/10/02 01:36:06;;;;;;;4.97;3.33;;;;;;;-146.32;100.00;58893.91;6230160;28;20217;-51
2021/10/02 01:50:32;;;;;;;5.53;3.00;;;;;;;-146.32;100.00;58893.91;6231672;28;20245;-52
2021/10/02 01:53:55;;;;;;;4.37;3.20;;;;;;;-146.32;100.00;58893.91;6228483;28;20220;-48
2021/10/02 01:57:17;;;;;;;3.13;2.83;;;;;;;-146.32;100.00;58893.91;6233354;28;20209;-50
2021/10/02 02:00:39;;;;;;;3.80;2.97;;;;;;;-146.32;100.00;58893.91;6231214;28;20368;-50
2021/10/02 02:04:02;;;;;;;3.27;2.47;;;;;;;-146.32;100.00;58893.91;6227322;28;20229;-49
2021/10/02 02:07:25;;;;;;;3.37;2.43;;;;;;;-146.32;100.00;58893.91;6229937;28;20200;-50
2021/10/02 02:10:47;;;;;;;3.10;2.70;;;;;;;-146.32;100.00;58893.91;6236113;28;20201;-52
2021/10/02 02:14:12;;;;;;;3.57;3.20;;;;;;;-146.32;100.00;58893.91;6234883;28;20232;-53
2021/10/02 02:17:37;;;;;;;3.93;3.10;;;;;;;-146.32;100.00;58893.91;6235707;28;20232;-52
2021/10/02 02:21:02;;;;;;;6.40;3.20;;;;;;;-146.32;100.00;58893.91;6240089;28;20208;-54
2021/10/02 02:24:23;;;;;;;4.00;3.17;;;;;;;-146.32;100.00;58893.91;6236660;28;20224;-49
2021/10/02 02:27:44;;;;;;;5.27;3.57;;;;;;;-146.32;100.00;58893.91;6240080;28;20633;-50
2021/10/02 02:31:05;;;;;;;8.60;4.20;;;;;;;-146.32;100.00;58893.91;6236619;28;20229;-51
2021/10/02 02:34:28;;;;;;;8.13;5.90;;;;;;;-146.32;100.00;58893.91;6234781;28;20626;-53
2021/10/02 02:37:51;;;;;;;4.57;3.73;;;;;;;-146.32;100.00;58893.91;6235988;28;20738;-53
2021/10/02 02:41:12;;;;;;;4.50;2.73;;;;;;;-146.32;100.00;58893.91;6240382;28;20213;-52
2021/10/02 02:44:33;;;;;;;5.20;3.17;;;;;;;-146.32;100.00;58893.91;6234604;28;20248;-55
2021/10/02 02:48:01;;;;;;;5.83;3.33;;;;;;;-146.32;100.00;58893.91;6232497;28;20331;-53
2021/10/02 02:51:27;;;;;;;4.60;2.73;;;;;;;-146.32;100.00;58893.91;6236574;28;20197;-50
2021/10/02 02:55:03;;;;;;;5.30;3.37;;;;;;;-146.32;100.00;58893.91;6238230;28;20633;-51
2021/10/02 02:58:26;;;;;;;4.37;3.23;;;;;;;-146.32;100.00;58893.91;6232030;28;21274;-52
2021/10/02 03:01:50;;;;;;;4.30;3.53;;;;;;;-146.32;100.00;58893.91;6238618;28;20201;-48
2021/10/02 03:05:13;;;;;;;5.37;3.20;;;;;;;-146.32;100.00;58893.91;6227488;28;20320;-50
2021/10/02 03:08:37;;;;;;;5.70;3.93;;;;;;;-146.32;100.00;58893.91;6240352;28;20224;-51
2021/10/02 03:12:01;;;;;;;8.63;6.50;;;;;;;-146.32;100.00;58893.91;6232750;28;20555;-54
2021/10/02 03:15:24;;;;;;;5.67;4.07;;;;;;;-146.32;100.00;58893.91;6233645;28;20233;-52
2021/10/02 03:18:48;;;;;;;5.43;3.93;;;;;;;-146.32;100.00;58893.91;6236328;28;20232;-55
2021/10/02 03:22:10;;;;;;;8.07;4.10;;;;;;;-146.32;100.00;58893.91;6235414;28;20193;-51
2021/10/02 03:25:33;;;;;;;7.43;6.00;;;;;;;-146.32;100.00;58893.91;6236435;28;20224;-51
2021/10/02 03:28:56;;;;;;;6.87;5.37;;;;;;;-146.32;100.00;58893.91;6235010;28;20221;-47
2021/10/02 03:32:17;;;;;;;7.40;5.00;;;;;;;-146.32;100.00;58893.91;6236009;28;20193;-51
2021/10/02 03:35:38;;;;;;;6.87;3.90;;;;;;;-146.32;100.00;58893.91;6233894;28;20552;-54
2021/10/02 03:38:59;;;;;;;5.97;4.37;;;;;;;-146.32;100.00;58893.91;6232205;28;20236;-53
2021/10/02 03:42:21;;;;;;;6.67;4.13;;;;;;;-146.32;100.00;58893.91;6236785;28;20299;-51
2021/10/02 03:45:43;;;;;;;5.27;4.77;;;;;;;-146.32;100.00;58893.91;6235054;28;20641;-54
2021/10/02 03:49:05;;;;;;;7.50;4.00;;;;;;;-146.32;100.00;58893.91;6238450;28;20256;-52
2021/10/02 03:52:26;;;;;;;5.10;4.60;;;;;;;-146.32;100.00;58893.91;6232982;28;20201;-49
2021/10/02 03:55:47;;;;;;;5.60;4.07;;;;;;;-146.32;100.00;58893.91;6234852;28;20318;-52
2021/10/02 03:59:08;;;;;;;6.43;4.07;;;;;;;-146.32;100.00;58893.91;6234946;28;20237;-51
2021/10/02 04:02:31;;;;;;;9.77;4.83;;;;;;;-146.32;100.00;58893.91;6232195;28;20201;-54
2021/10/02 04:05:52;;;;;;;6.57;4.23;;;;;;;-146.32;100.00;58893.91;6235365;28;20217;-54
2021/10/02 04:09:12;;;;;;;6.60;4.17;;;;;;;-146.32;100.00;58893.91;6230116;28;20228;-54
2021/10/02 04:12:33;;;;;;;9.90;5.00;;;;;;;-146.32;100.00;58893.91;6233035;28;20204;-51
2021/10/02 04:15:54;;;;;;;5.33;4.37;;;;;;;-146.32;100.00;58893.91;6234688;28;20216;-52
2021/10/02 04:19:16;;;;;;;6.83;5.27;;;;;;;-146.32;100.00;58893.91;6228978;28;20240;-53
2021/10/02 04:22:38;;;;;;;5.60;4.47;;;;;;;-146.32;100.00;58893.91;6230236;28;20240;-52
2021/10/02 04:25:59;;;;;;;5.87;5.17;;;;;;;-146.32;100.00;58893.91;6230725;28;20201;-51
2021/10/02 04:29:20;;;;;;;4.50;3.60;;;;;;;-146.32;100.00;58893.91;6231033;28;20938;-52
2021/10/02 04:32:41;;;;;;;7.17;4.57;;;;;;;-146.32;100.00;58893.91;6231071;28;20306;-55
2021/10/02 04:36:04;;;;;;;8.97;6.07;;;;;;;-146.32;100.00;58893.91;6228774;28;20220;-49
2021/10/02 04:39:26;;;;;;;7.73;4.40;;;;;;;-146.32;100.00;58893.91;6230017;28;20537;-51
2021/10/02 04:42:46;;;;;;;5.93;4.37;;;;;;;-146.32;100.00;58893.91;6228460;28;20228;-50
2021/10/02 04:46:09;;;;;;;7.67;4.73;;;;;;;-146.32;100.00;58893.91;6227161;28;20232;-51
2021/10/02 04:49:30;;;;;;;6.13;3.93;;;;;;;-146.32;100.00;58893.91;6230125;28;20657;-53
2021/10/02 04:52:54;;;;;;;10.87;6.23;;;;;;;-146.32;100.00;58893.91;6229689;28;20240;-49
2021/10/02 04:56:17;;;;;;;5.70;4.53;;;;;;;-146.32;100.00;58893.91;6226944;28;20233;-53
2021/10/02 04:59:38;;;;;;;9.73;7.23;;;;;;;-146.32;100.00;58893.91;6230718;28;20233;-50
2021/10/02 05:03:01;;;;;;;7.60;4.60;;;;;;;-146.32;100.00;58893.91;6229041;28;20528;-53
2021/10/02 05:06:22;;;;;;;6.73;5.17;;;;;;;-146.32;100.00;58893.91;6230044;28;20197;-52
2021/10/02 05:09:44;;;;;;;8.00;5.00;;;;;;;-146.32;100.00;58893.91;6229281;28;20236;-53
2021/10/02 05:13:06;;;;;;;6.73;4.63;;;;;;;-146.32;100.00;58893.91;6228884;28;20224;-53
2021/10/02 05:16:27;;;;;;;10.30;5.80;;;;;;;-146.32;100.00;58893.91;6230836;28;20229;-51
2021/10/02 05:19:48;;;;;;;6.00;5.37;;;;;;;-146.32;100.00;58893.91;6230582;28;20227;-53
2021/10/02 05:23:09;;;;;;;4.90;4.40;;;;;;;-146.32;100.00;58893.91;6231215;28;20237;-53
2021/10/02 05:26:31;;;;;;;7.20;6.43;;;;;;;-146.32;100.00;58893.91;6229821;28;20185;-53
2021/10/02 05:29:52;;;;;;;8.67;5.90;;;;;;;-146.32;100.00;58893.91;6232487;28;20236;-55
2021/10/02 05:33:13;;;;;;;8.23;5.63;;;;;;;-146.32;100.00;58893.91;6229207;28;20224;-51
2021/10/02 05:36:34;;;;;;;11.93;7.00;;;;;;;-146.32;100.00;58893.91;6229365;28;21397;-52
2021/10/02 05:39:55;;;;;;;10.43;6.43;;;;;;;-146.32;100.00;58893.91;6228210;28;21132;-51
2021/10/02 05:43:17;;;;;;;11.40;7.10;;;;;;;-146.32;100.00;58893.91;6229238;28;20808;-49
2021/10/02 05:46:38;;;;;;;8.90;6.83;;;;;;;-146.32;100.00;58893.91;6235341;28;20193;-54
2021/10/02 05:49:59;;;;;;;7.50;5.77;;;;;;;-146.32;100.00;58893.91;6235650;28;20228;-53
2021/10/02 05:53:20;;;;;;;7.07;6.37;;;;;;;-146.32;100.00;58893.91;6233575;28;20627;-49
2021/10/02 05:56:41;;;;;;;7.70;5.37;;;;;;;-146.32;100.00;58893.91;6233005;28;20232;-53
2021/10/02 06:00:04;;;;;;;9.00;6.10;;;;;;;-146.32;100.00;58893.91;6233195;28;20540;-52
2021/10/02 06:03:32;;;;;;;8.40;6.07;;;;;;;-146.32;100.00;58893.91;6228700;28;20925;-53
2021/10/02 06:06:53;;;;;;;6.63;5.90;;;;;;;-146.32;100.00;58893.91;6234057;28;20201;-54
2021/10/02 06:10:14;;;;;;;12.07;6.27;;;;;;;-146.32;100.00;58893.91;6228925;28;20237;-54
2021/10/02 06:13:35;;;;;;;7.13;5.97;;;;;;;-146.32;100.00;58893.91;6229274;28;20236;-52
2021/10/02 06:16:57;;;;;;;9.93;6.83;;;;;;;-146.32;100.00;58893.91;6234085;28;20222;-54
2021/10/02 06:20:19;;;;;;;8.40;7.03;;;;;;;-146.32;100.00;58893.91;6229115;28;20617;-52
2021/10/02 06:23:40;;;;;;;7.50;6.73;;;;;;;-146.32;100.00;58893.91;6231336;28;20228;-54
2021/10/02 06:27:01;;;;;;;11.83;6.17;;;;;;;-146.32;100.00;58893.91;6233908;28;20280;-55
2021/10/02 06:30:22;;;;;;;10.63;7.23;;;;;;;-146.32;100.00;58893.91;6228363;28;20221;-53
2021/10/02 06:33:44;;;;;;;9.97;7.43;;;;;;;-146.32;100.00;58893.91;6233926;28;20233;-47
2021/10/02 06:37:05;;;;;;;8.63;6.70;;;;;;;-146.32;100.00;58893.91;6231176;28;20205;-55
2021/10/02 06:40:26;;;;;;;8.73;7.53;;;;;;;-146.32;100.00;58893.91;6228316;28;20276;-54
2021/10/02 06:43:47;;;;;;;13.50;7.80;;;;;;;-146.32;100.00;58893.91;6217593;28;20224;-54
2021/10/02 06:47:09;;;;;;;9.97;7.07;;;;;;;-146.32;100.00;58893.91;6236108;28;20744;-51
2021/10/02 06:50:31;;;;;;;9.40;7.27;;;;;;;-146.32;100.00;58893.91;6229580;28;20224;-49
2021/10/02 06:53:52;;;;;;;9.47;7.23;;;;;;;-146.32;100.00;58893.91;6224901;28;20221;-50
2021/10/02 06:57:13;;;;;;;14.30;9.63;;;;;;;-146.32;100.00;58893.91;6218312;28;20294;-55
2021/10/02 07:00:34;;;;;;;11.13;8.13;;;;;;;-146.32;100.00;58893.91;6229231;28;20244;-52
2021/10/02 07:03:56;;;;;;;8.73;7.07;;;;;;;-146.32;100.00;58893.91;6228045;28;20621;-49
2021/10/02 07:07:18;;;;;;;9.07;6.33;;;;;;;-146.32;100.00;58893.91;6226839;28;20446;-54
2021/10/02 07:10:39;;;;;;;10.20;8.07;;;;;;;-146.32;100.00;58893.91;6231255;28;20350;-52
2021/10/02 07:14:00;;;;;;;10.07;8.67;;;;;;;-146.32;100.00;58893.91;6230970;28;20228;-49
2021/10/02 07:17:21;;;;;;;9.20;7.17;;;;;;;-146.32;100.00;58893.91;6227083;28;20300;-54
2021/10/02 07:20:42;;;;;;;8.60;7.33;;;;;;;-146.32;100.00;58893.91;6232975;28;20208;-50
2021/10/02 07:24:05;;;;;;;11.83;7.67;;;;;;;-146.32;100.00;58893.91;6225980;28;20574;-52
2021/10/02 07:27:25;;;;;;;10.30;7.97;;;;;;;-146.32;100.00;58893.91;6226135;28;20775;-48
2021/10/02 07:30:46;;;;;;;8.43;6.40;;;;;;;-146.32;100.00;58893.91;6226871;28;20189;-55
2021/10/02 07:34:07;;;;;;;12.87;7.40;;;;;;;-146.32;100.00;58893.91;6225955;28;20260;-53
2021/10/02 07:37:28;;;;;;;8.67;7.40;;;;;;;-146.32;100.00;58893.91;6230341;28;20485;-51
2021/10/02 07:40:51;;;;;;;14.00;7.87;;;;;;;-146.32;100.00;58893.91;6227326;28;20205;-52
2021/10/02 07:44:13;;;;;;;10.03;7.37;;;;;;;-146.32;100.00;58893.91;6228216;28;20228;-49
2021/10/02 07:47:40;;;;;;;10.13;8.53;;;;;;;-146.32;100.00;58893.91;6226397;28;20877;-51
2021/10/02 07:51:00;;;;;;;10.13;7.90;;;;;;;-146.32;100.00;58893.91;6230788;28;20466;-52
2021/10/02 07:54:26;;;;;;;14.47;9.23;;;;;;;-146.32;100.00;58893.91;6228728;28;20221;-55
2021/10/02 07:57:48;;;;;;;8.47;7.33;;;;;;;-146.32;100.00;58893.91;6232309;28;20232;-51
2021/10/02 08:01:09;;;;;;;9.70;7.80;;;;;;;-146.32;100.00;58893.91;6229229;28;20216;-55
2021/10/02 08:04:31;;;;;;;9.20;7.50;;;;;;;-146.32;100.00;58893.91;6231358;28;20233;-54
2021/10/02 08:07:52;;;;;;;11.40;8.93;;;;;;;-146.32;100.00;58893.91;6228163;28;20240;-54
2021/10/02 08:11:13;;;;;;;12.20;9.33;;;;;;;-146.32;100.00;58893.91;6236223;28;20228;-53
2021/10/02 08:14:36;;;;;;;8.60;7.70;;;;;;;-146.32;100.00;58893.91;6227316;28;20323;-51
2021/10/02 08:17:57;;;;;;;9.30;8.40;;;;;;;-146.32;100.00;58893.91;6228832;28;20582;-53
2021/10/02 08:21:19;;;;;;;10.77;9.63;;;;;;;-146.32;100.00;58893.91;6237192;28;20580;-53
2021/10/02 08:24:42;;;;;;;10.77;9.33;;;;;;;-146.32;100.00;58893.91;6227162;28;20236;-52
2021/10/02 08:28:05;;;;;;;11.90;9.33;;;;;;;-146.32;100.00;58893.91;6233841;28;20323;-50
2021/10/02 08:31:27;;;;;;;12.27;10.70;;;;;;;-146.32;100.00;58893.91;6232268;28;20189;-48
2021/10/02 08:34:48;;;;;;;12.30;9.57;;;;;;;-146.32;100.00;58893.91;6228418;28;20240;-51
2021/10/02 08:38:11;;;;;;;10.60;9.57;;;;;;;-146.32;100.00;58893.91;6224803;28;20401;-52
2021/10/02 08:41:32;;;;;;;11.60;10.10;;;;;;;-146.32;100.00;58893.91;6233580;28;20197;-53
2021/10/02 08:44:53;;;;;;;10.23;6.37;;;;;;;-146.32;100.00;58893.91;6227957;28;20232;-52
2021/10/02 08:48:18;;;;;;;10.47;9.43;;;;;;;-146.32;100.00;58893.91;6229505;28;20575;-53
2021/10/02 08:51:41;;;;;;;10.50;9.47;;;;;;;-146.32;100.00;58893.91;6230537;28;20246;-51
2021/10/02 08:55:04;;;;;;;10.17;9.27;;;;;;;-146.32;100.00;58893.91;6229425;28;20225;-52
2021/10/02 08:58:25;;;;;;;9.67;8.63;;;;;;;-146.32;100.00;58893.91;6227250;28;20260;-53
2021/10/02 09:01:47;;;;;;;9.53;7.43;;;;;;;-146.32;100.00;58893.91;6225945;28;20224;-53
2021/10/02 09:05:10;;;;;;;8.87;8.07;;;;;;;-146.32;100.00;58893.91;6218632;28;20228;-52
2021/10/02 09:08:31;;;;;;;9.67;8.63;;;;;;;-146.32;100.00;58893.91;6222547;28;20240;-54
2021/10/02 09:11:53;;;;;;;9.77;8.73;;;;;;;-146.32;100.00;58893.91;6223239;28;20579;-53
2021/10/02 09:15:15;;;;;;;8.03;7.23;;;;;;;-146.32;100.00;58893.91;6232094;28;20229;-48
2021/10/02 09:18:37;;;;;;;8.73;7.47;;;;;;;-146.32;100.00;58893.91;6231060;28;20511;-52
2021/10/02 09:22:07;;;;;;;9.07;8.23;;;;;;;-146.32;100.00;58893.91;6229848;28;20198;-53
2021/10/02 09:25:31;;;;;;;9.17;8.23;;;;;;;-146.32;100.00;58893.91;6230782;28;20212;-50
2021/10/02 09:28:52;;;;;;;9.67;8.67;;;;;;;-146.32;100.00;58893.91;6233902;28;20224;-51
2021/10/02 09:32:19;;;;;;;13.10;9.73;;;;;;;-146.32;100.00;58893.91;6227604;28;20300;-53
2021/10/02 09:35:42;;;;;;;12.53;9.23;;;;;;;-146.32;100.00;58893.91;6233525;28;20232;-54
2021/10/02 09:39:05;;;;;;;9.03;8.13;;;;;;;-146.32;100.00;58893.91;6237385;28;20224;-53
2021/10/02 09:42:33;;;;;;;8.77;7.93;;;;;;;-146.32;100.00;58893.91;6235694;28;20202;-51
2021/10/02 09:45:54;;;;;;;10.23;9.23;;;;;;;-146.32;100.00;58893.91;6231448;28;20490;-54
2021/10/02 09:49:16;;;;;;;10.50;8.47;;;;;;;-146.32;100.00;58893.91;6233838;28;20224;-51
2021/10/02 09:52:38;;;;;;;9.90;7.50;;;;;;;-146.32;100.00;58893.91;6228081;28;20795;-52
2021/10/02 09:56:07;;;;;;;11.43;7.80;;;;;;;-146.32;100.00;58893.91;6231837;28;20338;-49
2021/10/02 09:59:28;;;;;;;8.90;7.00;;;;;;;-146.32;100.00;58893.91;6236287;28;20240;-51
2021/10/02 10:02:49;;;;;;;10.67;7.13;;;;;;;-146.32;100.00;58893.91;6236971;28;20327;-51
2021/10/02 10:06:17;;;;;;;7.93;7.13;;;;;;;-146.32;100.00;58893.91;6232634;28;20255;-54
2021/10/02 10:09:39;;;;;;;6.93;6.27;;;;;;;-146.32;100.00;58893.91;6236600;28;20228;-53
2021/10/02 10:13:12;;;;;;;9.87;7.57;;;;;;;-146.32;100.00;58893.91;6234434;28;20229;-53
2021/10/02 10:16:37;;;;;;;7.57;6.80;;;;;;;-146.32;100.00;58893.91;6234922;28;20368;-51
2021/10/02 10:20:05;;;;;;;9.55;6.15;;;;;;;-146.32;100.00;58893.91;6233819;28;20228;-55
2021/10/02 10:23:28;;;;;;;7.70;6.38;;;;;;;-146.32;100.00;58893.91;6229720;28;20633;-49
2021/10/02 10:26:48;;;;;;;6.88;4.95;;;;;;;-146.32;100.00;58893.91;6242800;28;20200;-54
2021/10/02 10:30:15;;;;;;;5.95;5.38;;;;;;;-146.32;100.00;58893.91;6237140;28;20236;-54
2021/10/02 10:33:38;;;;;;;6.47;5.00;;;;;;;-146.32;100.00;58893.91;6232247;28;20220;-53
2021/10/02 10:36:59;;;;;;;7.70;6.20;;;;;;;-146.32;100.00;58893.91;6228816;28;20291;-51
2021/10/02 10:40:20;;;;;;;6.57;5.57;;;;;;;-146.32;100.00;58893.91;6226978;28;20220;-55
2021/10/02 10:43:42;;;;;;;5.17;4.43;;;;;;;-146.32;100.00;58893.91;6231305;28;20233;-53
2021/10/02 10:47:04;;;;;;;6.27;4.93;;;;;;;-146.32;100.00;58893.91;6229291;28;20309;-55
2021/10/02 10:50:26;;;;;;;5.43;5.03;;;;;;;-146.32;100.00;58893.91;6230088;28;20607;-51
2021/10/02 10:53:49;;;;;;;6.60;5.00;;;;;;;-146.32;100.00;58893.91;6234543;28;20225;-54
2021/10/02 10:57:34;;;;;;;8.50;5.50;;;;;;;-146.32;100.00;58893.91;6229346;28;20477;-53
2021/10/02 11:00:56;;;;;;;7.47;5.00;;;;;;;-146.32;100.00;58893.91;6228977;28;20221;-55
2021/10/02 11:04:39;;;;;;;7.00;5.77;;;;;;;-146.32;100.00;58893.91;6230487;28;20323;-51
2021/10/02 11:08:00;;;;;;;7.80;6.00;;;;;;;-146.32;100.00;58893.91;6229021;28;20244;-49
2021/10/02 11:11:57;;;;;;;10.60;5.83;;;;;;;-146.32;100.00;58893.91;6226000;28;20949;-49
2021/10/02 11:15:25;;;;;;;7.80;5.07;;;;;;;-146.32;100.00;58893.91;6218048;28;20213;-52
2021/10/02 11:18:47;;;;;;;6.43;4.03;;;;;;;-146.32;100.00;58893.91;6215178;28;20224;-50
2021/10/02 11:22:47;;;;;;;13.13;4.77;;;;;;;-146.32;100.00;58893.91;6225439;28;20197;-49
2021/10/02 11:26:17;;;;;;;7.50;4.47;;;;;;;-146.32;100.00;58893.91;6222354;28;20459;-52
2021/10/02 11:29:41;;;;;;;8.33;5.03;;;;;;;-146.32;100.00;58893.91;6223578;28;20247;-49
2021/10/02 11:33:32;;;;;;;9.10;4.37;;;;;;;-146.32;100.00;58893.91;6209649;28;20233;-52
2021/10/02 11:36:56;;;;;;;5.63;5.03;;;;;;;-146.32;100.00;58893.91;6225733;28;20213;-54
2021/10/02 11:40:49;;;;;;;8.40;4.33;;;;;;;-146.32;100.00;58893.91;6221566;28;20230;-54
2021/10/02 11:44:12;;;;;;;5.87;4.60;;;;;;;-146.32;100.00;58893.91;6224047;28;20508;-54
2021/10/02 11:47:36;;;;;;;6.63;3.90;;;;;;;-146.32;100.00;58893.91;6227548;28;20193;-50
2021/10/02 11:51:13;;;;;;;9.30;4.63;;;;;;;-146.32;100.00;58893.91;6230302;28;20193;-50
2021/10/02 11:54:34;;;;;;;3.73;3.40;;;;;;;-146.32;100.00;58893.91;6221780;28;20702;-53
2021/10/02 11:58:13;;;;;;;4.87;3.73;;;;;;;-146.32;100.00;58893.91;6231113;28;20232;-50
2021/10/02 12:01:39;;;;;;;5.00;3.73;;;;;;;-146.32;100.00;58893.91;6234422;28;20189;-49
2021/10/02 12:05:00;;;;;;;7.07;4.20;;;;;;;-146.32;100.00;58893.91;6229039;28;20651;-49
2021/10/02 12:08:21;;;;;;;5.20;4.50;;;;;;;-146.32;100.00;58893.91;6231308;28;20536;-51
2021/10/02 12:11:45;;;;;;;6.50;4.77;;;;;;;-146.32;100.00;58893.91;6229882;28;20209;-55
2021/10/02 12:15:06;;;;;;;5.53;4.77;;;;;;;-146.32;100.00;58893.91;6231471;28;20244;-51
2021/10/02 12:21:58;;;;;;;8.20;4.50;;;;;;;17.10;61.92;100968.38;6351342;27;20897;-53
2021/10/02 12:25:25;;;;;;;7.57;5.63;;;;;;;17.43;61.04;100979.53;6350665;27;21185;-50
2021/10/02 12:28:45;;;;;;;5.10;4.47;;;;;;;20.42;52.53;100967.31;6333465;27;20225;-55
2021/10/02 12:32:08;;;;;;;6.45;5.22;;;;;;;21.53;48.87;100949.41;6322338;28;20178;-53
2021/10/02 12:35:31;;;;;;;5.32;3.97;;;;;;;23.31;44.16;100948.31;6324180;28;20215;-52
2021/10/02 12:38:58;;;;;;;5.22;3.97;;;;;;;22.57;46.19;100940.22;6318112;28;20635;-50
2021/10/02 12:42:31;;;;;;;6.95;4.47;;;;;;;25.02;41.50;100927.66;6329407;28;20277;-54
2021/10/02 12:45:52;;;;;;;6.13;4.68;;;;;;;23.09;43.75;100936.34;6321735;28;20182;-52
2021/10/02 12:49:13;;;;;;;8.48;5.28;;;;;;;22.51;45.54;100940.56;6321995;27;20226;-47
2021/10/02 12:52:35;;;;;;;4.43;2.92;;;;;;;24.33;42.76;100926.88;6324706;28;20187;-49
2021/10/02 12:55:57;;;;;;;5.00;4.00;;;;;;;22.30;46.48;100925.88;6321308;28;20198;-54
2021/10/02 12:59:18;;;;;;;4.47;4.07;;;;;;;20.15;52.08;100928.00;6317152;27;20623;-54
2021/10/02 13:02:42;;;;;;;4.78;4.20;;;;;;;20.04;52.98;100925.88;6318159;27;21164;-54
2021/10/02 13:06:03;;;;;;;7.80;5.45;;;;;;;19.35;54.63;100928.09;6327746;28;20190;-49
2021/10/02 13:09:23;;;;;;;6.28;4.47;;;;;;;18.59;56.53;100927.75;6327117;28;20234;-50
2021/10/02 13:12:53;;;;;;;5.07;4.60;;;;;;;18.33;57.59;100937.56;6317706;28;20234;-50
2021/10/02 13:16:21;;;;;;;5.85;4.88;;;;;;;18.33;57.72;100932.31;6316083;28;20206;-50
2021/10/02 13:19:42;;;;;;;5.47;4.97;;;;;;;18.25;57.73;100934.38;6314561;27;20223;-53
2021/10/02 13:23:06;;;;;;;5.00;4.50;;;;;;;17.94;59.09;100932.09;6317125;27;21138;-53
2021/10/02 13:26:28;;;;;;;6.85;5.15;;;;;;;18.39;57.74;100929.41;6319692;28;20207;-48
2021/10/02 13:30:02;;;;;;;5.72;4.65;;;;;;;20.45;53.51;100919.53;6318169;27;20631;-47
2021/10/02 13:33:24;;;;;;;5.22;4.55;;;;;;;19.31;55.43;100927.41;6303424;28;20254;-53
2021/10/02 13:36:45;;;;;;;6.65;5.35;;;;;;;18.83;57.35;100929.44;6301410;28;20199;-51
2021/10/02 13:40:06;;;;;;;4.60;4.18;;;;;;;19.08;57.13;100916.06;6301866;28;20684;-52
2021/10/02 13:43:28;;;;;;;4.43;4.03;;;;;;;19.79;54.83;100897.09;6309675;28;20222;-54
2021/10/02 13:46:52;;;;;;;4.00;3.63;;;;;;;20.79;51.72;100899.38;6312020;28;20219;-52
2021/10/02 13:50:13;;;;;;;3.97;3.10;;;;;;;21.11;50.91;100888.94;6296537;28;20222;-54
2021/10/02 13:53:34;;;;;;;3.00;2.78;;;;;;;20.20;53.56;100889.00;6299275;28;21119;-51
2021/10/02 13:57:05;;;;;;;5.93;3.58;;;;;;;20.30;54.23;100885.88;6303029;28;20199;-52
2021/10/02 14:00:28;;;;;;;3.22;2.92;;;;;;;20.24;53.57;100877.34;6304745;28;20254;-54
2021/10/02 14:03:50;;;;;;;3.15;2.85;;;;;;;19.34;55.07;100882.38;6302868;28;20231;-54
2021/10/02 14:07:11;;;;;;;2.35;2.15;;;;;;;18.76;56.52;100879.59;6303542;28;20187;-52
2021/10/02 14:10:31;;;;;;;2.25;2.05;;;;;;;19.16;56.13;100870.00;6296380;28;20227;-55
2021/10/02 14:13:52;;;;;;;2.83;2.22;;;;;;;18.23;57.63;100871.19;6303643;28;20227;-52
2021/10/02 14:17:13;;;;;;;3.05;2.80;;;;;;;18.68;57.51;100859.66;6300831;28;20215;-51
2021/10/02 14:20:37;;;;;;;4.43;3.00;;;;;;;18.34;58.46;100847.03;6306360;28;20235;-52
2021/10/02 14:23:58;;;;;;;3.10;2.85;;;;;;;17.69;60.92;100853.94;6316901;27;20329;-51
2021/10/02 14:27:19;;;;;;;2.78;2.17;;;;;;;17.59;61.54;100848.19;6323544;27;20211;-52
2021/10/02 14:30:41;;;;;;;2.33;2.15;;;;;;;17.07;63.10;100850.94;6303870;28;20194;-52
2021/10/02 14:34:05;;;;;;;3.25;2.20;;;;;;;17.41;62.47;100855.00;6299299;28;20230;-51
2021/10/02 14:37:27;;;;;;;2.95;2.40;;;;;;;18.02;60.69;100846.53;6303244;28;20227;-53
2021/10/02 14:40:48;;;;;;;3.38;3.08;;;;;;;17.56;62.10;100831.63;6301031;28;20211;-53
2021/10/02 14:44:09;;;;;;;2.93;2.60;;;;;;;17.75;61.43;100835.28;6301540;28;20224;-50
2021/10/02 14:47:30;;;;;;;3.17;2.60;;;;;;;17.50;62.41;100827.44;6304850;28;20313;-52
2021/10/02 14:50:53;;;;;;;3.33;2.57;;;;;;;17.02;64.82;100837.09;6303871;28;20207;-50
2021/10/02 14:54:19;;;;;;;3.43;3.13;;;;;;;17.27;64.19;100849.34;6307592;28;20317;-51
2021/10/02 14:57:41;;;;;;;2.83;2.60;;;;;;;16.88;66.07;100848.09;6299326;28;20234;-50
2021/10/02 15:01:02;;;;;;;3.40;3.07;;;;;;;17.17;64.66;100850.63;6296545;28;20212;-48
2021/10/02 15:04:23;;;;;;;4.10;3.10;;;;;;;17.13;65.15;100828.81;6300936;27;20226;-51
2021/10/02 15:07:44;;;;;;;3.47;2.87;;;;;;;17.02;65.30;100809.91;6305628;28;20611;-51
2021/10/02 15:11:08;;;;;;;4.90;3.73;;;;;;;16.66;66.66;100826.06;6300332;28;20728;-50
2021/10/02 15:14:30;;;;;;;3.73;3.43;;;;;;;17.00;65.51;100817.88;6298268;28;20317;-50
2021/10/02 15:17:52;;;;;;;4.57;3.97;;;;;;;17.03;65.56;100804.59;6302618;28;20226;-54
2021/10/02 15:21:15;;;;;;;3.77;3.13;;;;;;;17.07;65.29;100800.94;6305467;28;20226;-52
2021/10/02 15:24:43;;;;;;;3.60;3.30;;;;;;;17.11;64.90;100805.19;6308365;28;20238;-51
2021/10/02 15:28:17;;;;;;;3.53;3.23;;;;;;;16.74;66.16;100795.94;6307328;28;20230;-50
2021/10/02 15:31:38;;;;;;;3.83;3.53;;;;;;;17.09;65.26;100795.63;6304655;28;20199;-51
2021/10/02 15:35:00;;;;;;;3.93;3.43;;;;;;;17.29;64.25;100792.25;6303264;28;20321;-50
2021/10/02 15:38:23;;;;;;;3.53;3.23;;;;;;;16.98;65.96;100790.75;6311301;28;20227;-50
2021/10/02 15:41:44;;;;;;;5.13;3.00;;;;;;;17.06;66.00;100790.47;6303597;28;20223;-51
2021/10/02 15:45:07;;;;;;;3.67;3.13;;;;;;;16.89;66.50;100785.84;6296823;28;20223;-50
2021/10/02 15:48:32;;;;;;;3.87;3.47;;;;;;;17.27;65.36;100778.28;6303920;28;20604;-53
2021/10/02 15:51:54;;;;;;;4.37;3.97;;;;;;;17.17;65.81;100769.03;6304397;28;20195;-47
2021/10/02 15:55:15;;;;;;;4.93;3.67;;;;;;;17.35;65.48;100763.09;6298210;28;20230;-50
2021/10/02 15:58:40;;;;;;;6.53;3.53;;;;;;;17.30;65.35;100760.63;6303426;28;20231;-48
2021/10/02 16:02:06;;;;;;;4.17;2.90;;;;;;;16.84;66.76;100766.72;6301951;28;20207;-51
2021/10/02 16:05:31;;;;;;;3.30;2.93;;;;;;;17.20;65.87;100755.78;6300115;28;20616;-48
2021/10/02 16:08:55;;;;;;;3.73;2.80;;;;;;;17.12;65.74;100756.91;6290152;28;20227;-49
2021/10/02 16:12:18;;;;;;;5.10;4.60;;;;;;;17.75;66.97;100755.41;6288228;28;20203;-47
2021/10/02 16:15:41;;;;;;;125.17;43.77;;;;;;;18.04;64.54;100764.81;6288448;28;20211;-51
2021/10/02 16:19:03;;;;;;;22.07;13.40;;;;;;;17.60;64.47;100764.75;6295830;28;20256;-49
2021/10/02 16:22:25;;;;;;;1251.17;835.03;;;;;;;17.79;68.63;100754.38;6290453;28;20223;-51
2021/10/02 16:25:46;;;;;;;234.63;212.80;;;;;;;17.97;64.26;100753.66;6287971;28;20251;-53